Time;durP1;ratioP1;P1;durP2;ratioP2;P2;SDS_P1;SDS_P2;PMS_P1;PMS_P2;Temp;Humidity;BMP_temperature;BMP_pressure;BME280_temperature;BME280_humidity;BME280_pressure;Samples;Min_cycle;Max_cycle;Signal;HPM_P1;HPM_P2
2022/01/04 00:00:26;;;;;;;1.00;0.90;;;11.40;99.90;;;;;;5008482;28;20465;-57
2022/01/04 00:02:51;;;;;;;2.88;1.02;;;11.90;99.90;;;;;;5013380;28;20184;-56
2022/01/04 00:05:17;;;;;;;1.30;1.20;;;12.00;99.90;;;;;;5013558;28;20587;-56
2022/01/04 00:07:42;;;;;;;2.97;1.10;;;11.70;99.90;;;;;;5010874;28;20268;-57
2022/01/04 00:10:09;;;;;;;1.10;1.00;;;12.00;99.90;;;;;;5013737;28;20552;-56
2022/01/04 00:15:20;;;;;;;1.30;1.20;;;12.00;99.90;;;;;;5008853;28;20200;-56
2022/01/04 00:17:45;;;;;;;2.70;1.07;;;11.80;99.90;;;;;;5010328;28;20193;-56
2022/01/04 00:20:11;;;;;;;1.63;1.13;;;11.80;99.90;;;;;;5013492;28;20632;-56
2022/01/04 00:22:37;;;;;;;2.27;1.13;;;11.80;99.90;;;;;;5006654;28;20201;-56
2022/01/04 00:25:04;;;;;;;1.30;1.20;;;12.00;99.90;;;;;;5012529;28;20478;-56
2022/01/04 00:27:30;;;;;;;1.30;1.00;;;11.80;99.90;;;;;;5013202;28;20190;-56
2022/01/04 00:29:56;;;;;;;1.30;1.00;;;11.90;99.90;;;;;;5007524;28;20637;-56
2022/01/04 00:32:21;;;;;;;1.90;1.10;;;11.90;99.90;;;;;;5012597;28;20275;-56
2022/01/04 00:34:47;;;;;;;1.63;1.00;;;11.80;99.90;;;;;;5012823;28;20673;-56
2022/01/04 00:37:13;;;;;;;1.57;1.00;;;11.90;99.90;;;;;;5017816;28;20190;-56
2022/01/04 00:39:39;;;;;;;4.50;1.10;;;11.70;99.90;;;;;;5004705;28;20465;-56
2022/01/04 00:42:04;;;;;;;1.80;1.30;;;11.80;99.90;;;;;;5012631;28;20197;-56
2022/01/04 00:44:30;;;;;;;1.57;1.07;;;12.00;99.90;;;;;;5006387;28;20571;-57
2022/01/04 00:46:59;;;;;;;1.60;1.25;;;12.00;99.90;;;;;;5008103;28;20932;-57
2022/01/04 00:49:24;;;;;;;1.30;1.10;;;11.80;99.90;;;;;;5012595;28;20199;-56
2022/01/04 00:51:52;;;;;;;1.53;1.00;;;11.90;99.90;;;;;;5009711;28;20232;-56
2022/01/04 00:54:19;;;;;;;1.40;0.90;;;11.60;99.90;;;;;;5011851;28;20503;-56
2022/01/04 00:56:46;;;;;;;4.05;1.35;;;12.00;99.90;;;;;;5011459;28;20181;-56
2022/01/04 00:59:12;;;;;;;1.60;1.00;;;12.00;99.90;;;;;;5010105;28;20649;-56
2022/01/04 01:01:39;;;;;;;1.50;1.40;;;11.70;99.90;;;;;;5011468;28;20188;-56
2022/01/04 01:04:06;;;;;;;0.93;0.80;;;11.80;99.90;;;;;;5004332;28;20185;-56
2022/01/04 01:06:32;;;;;;;1.80;1.00;;;11.90;99.90;;;;;;5007465;28;20252;-56
2022/01/04 01:08:58;;;;;;;1.70;1.38;;;11.60;99.90;;;;;;5005262;28;20263;-56
2022/01/04 01:11:24;;;;;;;1.33;1.00;;;11.80;99.90;;;;;;5007218;28;20184;-56
2022/01/04 01:13:51;;;;;;;1.45;1.13;;;11.90;99.90;;;;;;5006733;28;20581;-56
2022/01/04 01:16:16;;;;;;;1.45;1.00;;;11.70;99.90;;;;;;5012266;28;20198;-56
2022/01/04 01:18:43;;;;;;;1.83;1.20;;;11.90;99.90;;;;;;5011862;28;20213;-56
2022/01/04 01:21:08;;;;;;;1.67;1.45;;;11.90;99.90;;;;;;5011639;28;20221;-56
2022/01/04 01:23:35;;;;;;;1.07;0.97;;;11.70;99.90;;;;;;5003902;28;20224;-55
2022/01/04 01:26:03;;;;;;;2.03;1.10;;;11.90;99.90;;;;;;5010356;28;20675;-56
2022/01/04 01:28:29;;;;;;;1.65;0.98;;;11.90;99.90;;;;;;5012425;28;20210;-56
2022/01/04 01:30:55;;;;;;;2.25;1.20;;;12.00;99.90;;;;;;4998574;28;20181;-56
2022/01/04 01:33:23;;;;;;;1.00;0.90;;;11.80;99.90;;;;;;5005974;28;20181;-56
2022/01/04 01:35:49;;;;;;;1.15;0.90;;;11.90;99.90;;;;;;5012005;28;20197;-56
2022/01/04 01:38:16;;;;;;;2.35;1.20;;;11.90;99.90;;;;;;5005432;28;20196;-56
2022/01/04 01:40:43;;;;;;;2.72;1.13;;;12.00;99.90;;;;;;5006690;28;20307;-56
2022/01/04 01:43:09;;;;;;;1.85;1.23;;;11.90;99.90;;;;;;5011153;28;20627;-56
2022/01/04 01:45:35;;;;;;;1.47;1.20;;;12.00;99.90;;;;;;5010810;28;20336;-56
2022/01/04 01:48:01;;;;;;;2.03;1.30;;;11.90;99.90;;;;;;5009297;28;20567;-56
2022/01/04 01:50:27;;;;;;;1.43;1.30;;;12.00;99.90;;;;;;5011933;28;20278;-58
2022/01/04 01:52:54;;;;;;;2.33;1.30;;;11.80;99.90;;;;;;5012833;28;20195;-57
2022/01/04 01:55:21;;;;;;;2.40;1.35;;;11.90;99.90;;;;;;5010438;28;20529;-56
2022/01/04 01:57:48;;;;;;;1.40;1.30;;;12.00;99.90;;;;;;5006696;28;20186;-57
2022/01/04 02:00:17;;;;;;;4.40;1.30;;;12.00;99.90;;;;;;5006355;28;20229;-56
2022/01/04 02:02:43;;;;;;;1.52;1.20;;;11.90;99.90;;;;;;5011470;28;20187;-56
2022/01/04 02:05:09;;;;;;;2.13;1.57;;;11.80;99.90;;;;;;5010762;28;20260;-56
2022/01/04 02:07:37;;;;;;;1.98;1.45;;;11.60;99.90;;;;;;5010823;28;20188;-56
2022/01/04 02:10:05;;;;;;;1.80;1.30;;;11.90;99.90;;;;;;5002384;28;20215;-56
2022/01/04 02:12:57;;;;;;;1.15;1.05;;;11.70;99.90;;;;;;5012000;28;20193;-56
2022/01/04 02:15:25;;;;;;;1.70;1.60;;;11.80;99.90;;;;;;5004334;28;20206;-56
2022/01/04 02:17:51;;;;;;;1.33;1.23;;;11.50;99.90;;;;;;5010552;28;20206;-56
2022/01/04 02:20:17;;;;;;;1.73;1.63;;;11.50;99.90;;;;;;5013781;28;20586;-56
2022/01/04 02:22:43;;;;;;;2.10;1.90;;;11.70;99.90;;;;;;5002228;28;20197;-56
2022/01/04 02:25:10;;;;;;;1.40;1.30;;;11.50;99.90;;;;;;5006554;28;20229;-57
2022/01/04 02:27:37;;;;;;;1.30;1.20;;;11.80;99.90;;;;;;5011103;28;20193;-56
2022/01/04 02:30:06;;;;;;;1.50;1.40;;;11.90;99.90;;;;;;5000935;28;20689;-56
2022/01/04 02:32:32;;;;;;;1.70;1.60;;;11.90;99.90;;;;;;5010071;28;20662;-56
2022/01/04 02:34:57;;;;;;;2.47;1.47;;;12.10;99.90;;;;;;5010406;28;20189;-56
2022/01/04 02:37:25;;;;;;;1.60;1.50;;;11.90;99.90;;;;;;5008571;28;20440;-56
2022/01/04 02:39:52;;;;;;;1.50;1.40;;;11.90;99.90;;;;;;5010413;28;20211;-56
2022/01/04 02:42:18;;;;;;;2.05;1.65;;;11.90;99.90;;;;;;5010096;28;20678;-56
2022/01/04 02:44:44;;;;;;;1.60;1.50;;;11.80;99.90;;;;;;5009194;28;20255;-56
2022/01/04 02:47:10;;;;;;;1.73;1.40;;;12.00;99.90;;;;;;5010210;28;20189;-56
2022/01/04 02:49:36;;;;;;;1.77;1.50;;;11.90;99.90;;;;;;5010185;28;20215;-56
2022/01/04 02:52:03;;;;;;;2.10;1.57;;;11.50;99.90;;;;;;5010415;28;20289;-56
2022/01/04 02:54:28;;;;;;;1.65;1.40;;;12.00;99.90;;;;;;5007319;28;20191;-57
2022/01/04 02:56:54;;;;;;;1.97;1.77;;;12.00;99.90;;;;;;5009996;28;20243;-56
2022/01/04 02:59:20;;;;;;;1.70;1.40;;;12.10;99.90;;;;;;5005575;28;20206;-57
2022/01/04 03:01:45;;;;;;;1.73;1.50;;;12.20;99.90;;;;;;5010994;28;20187;-56
2022/01/04 03:04:11;;;;;;;2.93;1.93;;;11.90;99.90;;;;;;5008973;28;20636;-56
2022/01/04 03:06:37;;;;;;;3.57;1.80;;;12.00;99.90;;;;;;5009543;28;20316;-56
2022/01/04 03:09:06;;;;;;;1.70;1.60;;;12.00;99.90;;;;;;5017209;28;20769;-55
2022/01/04 03:11:33;;;;;;;1.50;1.40;;;12.10;99.90;;;;;;5008337;28;20187;-55
2022/01/04 03:13:59;;;;;;;1.63;1.52;;;11.70;99.90;;;;;;5007589;28;20192;-57
2022/01/04 03:16:25;;;;;;;1.50;1.40;;;11.90;99.90;;;;;;5010389;28;20184;-56
2022/01/04 03:19:02;;;;;;;1.47;1.37;;;12.00;99.90;;;;;;5009930;28;20457;-56
2022/01/04 03:21:32;;;;;;;1.95;1.75;;;12.40;99.90;;;;;;5009422;28;20188;-57
2022/01/04 03:23:58;;;;;;;1.55;1.45;;;12.00;99.90;;;;;;5004284;28;20557;-56
2022/01/04 03:26:24;;;;;;;1.40;1.30;;;12.20;99.90;;;;;;5011531;28;20667;-56
2022/01/04 03:28:50;;;;;;;3.15;1.50;;;12.40;99.90;;;;;;5014024;28;20239;-56
2022/01/04 03:31:15;;;;;;;1.50;1.30;;;12.30;99.90;;;;;;5012821;28;20178;-56
2022/01/04 03:33:41;;;;;;;2.33;1.70;;;12.30;99.90;;;;;;5013603;28;20190;-56
2022/01/04 03:36:07;;;;;;;1.60;1.50;;;12.30;99.90;;;;;;5012841;28;20193;-56
2022/01/04 03:38:33;;;;;;;1.40;1.30;;;12.20;99.90;;;;;;5010605;28;20232;-56
2022/01/04 03:40:59;;;;;;;1.30;1.20;;;12.30;99.90;;;;;;5014312;28;20229;-56
2022/01/04 03:43:25;;;;;;;1.80;1.70;;;12.00;99.90;;;;;;5015523;28;20649;-57
2022/01/04 03:45:50;;;;;;;1.50;1.30;;;12.00;99.90;;;;;;5011883;28;20260;-57
2022/01/04 03:48:16;;;;;;;1.60;1.30;;;11.80;99.90;;;;;;5013423;28;20587;-56
2022/01/04 03:50:42;;;;;;;1.57;1.23;;;12.10;99.90;;;;;;5013276;28;20202;-56
2022/01/04 03:53:08;;;;;;;1.20;1.10;;;12.00;99.90;;;;;;5012554;28;20676;-56
2022/01/04 03:55:34;;;;;;;1.55;1.45;;;12.40;99.90;;;;;;5013593;28;20461;-56
2022/01/04 03:58:01;;;;;;;1.20;1.10;;;12.10;99.90;;;;;;5013946;28;20189;-56
2022/01/04 04:00:27;;;;;;;1.23;1.13;;;12.00;99.90;;;;;;5009150;28;20207;-56
2022/01/04 04:02:52;;;;;;;1.35;1.20;;;12.10;99.90;;;;;;5012899;28;20200;-56
2022/01/04 04:05:18;;;;;;;1.33;1.17;;;12.00;99.90;;;;;;5013411;28;20575;-56
2022/01/04 04:07:44;;;;;;;1.33;1.23;;;12.40;99.90;;;;;;5007861;28;20255;-57
2022/01/04 04:10:10;;;;;;;1.20;1.10;;;12.50;99.90;;;;;;5013345;28;20980;-56
2022/01/04 04:12:36;;;;;;;1.67;1.10;;;12.30;99.90;;;;;;5013616;28;20583;-56
2022/01/04 04:15:04;;;;;;;2.60;1.30;;;12.20;99.90;;;;;;5010373;28;20488;-56
2022/01/04 04:17:33;;;;;;;1.23;1.13;;;12.30;99.90;;;;;;5012307;28;20443;-56
2022/01/04 04:19:59;;;;;;;1.90;1.20;;;12.30;99.90;;;;;;5010657;28;20753;-56
2022/01/04 04:22:25;;;;;;;1.43;1.33;;;12.50;99.90;;;;;;5011312;28;20194;-56
2022/01/04 04:24:50;;;;;;;1.50;1.20;;;12.30;99.90;;;;;;5011177;28;20476;-56
2022/01/04 04:27:16;;;;;;;1.37;0.93;;;12.40;99.90;;;;;;5012673;28;20452;-56
2022/01/04 04:29:42;;;;;;;1.20;1.10;;;12.30;99.90;;;;;;5009375;28;20439;-56
2022/01/04 04:32:08;;;;;;;2.30;0.90;;;12.40;99.90;;;;;;5010690;28;20195;-55
2022/01/04 04:34:34;;;;;;;1.20;1.10;;;12.40;99.90;;;;;;5013517;28;20181;-55
2022/01/04 04:36:59;;;;;;;2.90;1.17;;;12.30;99.90;;;;;;5012981;28;20201;-56
2022/01/04 04:39:26;;;;;;;2.23;1.33;;;12.00;99.90;;;;;;5011054;28;20277;-56
2022/01/04 04:41:52;;;;;;;1.42;1.10;;;12.30;99.90;;;;;;5012159;28;21078;-56
2022/01/04 04:44:18;;;;;;;1.63;1.10;;;12.10;99.90;;;;;;5011263;28;20268;-56
2022/01/04 04:46:44;;;;;;;1.30;1.20;;;12.40;99.90;;;;;;5012823;28;20225;-56
2022/01/04 04:49:10;;;;;;;1.48;1.00;;;12.00;99.90;;;;;;5012739;28;20821;-56
2022/01/04 04:51:36;;;;;;;1.20;1.10;;;12.40;99.90;;;;;;5013056;28;20197;-56
2022/01/04 04:54:03;;;;;;;1.25;1.15;;;12.20;99.90;;;;;;4998714;28;20437;-56
2022/01/04 04:56:28;;;;;;;1.30;0.95;;;12.20;99.90;;;;;;5011949;28;20197;-56
2022/01/04 04:58:54;;;;;;;1.27;1.17;;;12.50;99.90;;;;;;5009522;28;20340;-56
2022/01/04 05:01:20;;;;;;;1.23;1.00;;;12.30;99.90;;;;;;5009549;28;20326;-56
2022/01/04 05:03:45;;;;;;;2.00;1.40;;;12.20;99.90;;;;;;5012228;28;20197;-56
2022/01/04 05:06:11;;;;;;;1.40;1.30;;;12.20;99.90;;;;;;5011751;28;20286;-56
2022/01/04 05:08:36;;;;;;;1.67;1.20;;;12.40;99.90;;;;;;5012227;28;20213;-56
2022/01/04 05:11:02;;;;;;;1.13;1.03;;;12.30;99.90;;;;;;5006658;28;20683;-56
2022/01/04 05:13:28;;;;;;;1.77;1.10;;;12.30;99.90;;;;;;5008572;28;20190;-57
2022/01/04 05:15:54;;;;;;;1.10;0.97;;;12.40;99.90;;;;;;5008010;28;20185;-57
2022/01/04 05:18:19;;;;;;;1.93;1.40;;;12.10;99.90;;;;;;5012643;28;20476;-56
2022/01/04 05:20:45;;;;;;;1.87;1.07;;;12.40;99.90;;;;;;5010250;28;20512;-56
2022/01/04 05:23:11;;;;;;;1.45;1.35;;;12.30;99.90;;;;;;5011504;28;20206;-56
2022/01/04 05:25:37;;;;;;;1.60;1.50;;;11.80;99.90;;;;;;5008830;28;20298;-56
2022/01/04 05:28:03;;;;;;;2.10;1.70;;;12.40;99.90;;;;;;5007595;28;20319;-56
2022/01/04 05:30:29;;;;;;;1.63;1.13;;;12.20;99.90;;;;;;5008487;28;20503;-56
2022/01/04 05:32:54;;;;;;;1.40;1.30;;;12.10;99.90;;;;;;5011245;28;20451;-56
2022/01/04 05:35:20;;;;;;;1.77;1.20;;;12.00;99.90;;;;;;5010900;28;20198;-56
2022/01/04 05:37:46;;;;;;;1.20;1.10;;;12.30;99.90;;;;;;5010010;28;20220;-55
2022/01/04 05:40:12;;;;;;;1.70;1.40;;;12.20;99.90;;;;;;5006495;28;20548;-56
2022/01/04 05:42:37;;;;;;;1.60;1.50;;;12.10;99.90;;;;;;5008193;28;20272;-55
2022/01/04 05:45:04;;;;;;;1.33;1.10;;;12.00;99.90;;;;;;5009754;28;20293;-56
2022/01/04 05:47:30;;;;;;;1.55;1.30;;;11.90;99.90;;;;;;5007479;28;20192;-56
2022/01/04 05:49:55;;;;;;;1.30;1.20;;;12.00;99.90;;;;;;5011280;28;20201;-55
2022/01/04 05:52:21;;;;;;;1.20;1.10;;;11.90;99.90;;;;;;5007295;28;20228;-56
2022/01/04 05:54:49;;;;;;;1.87;1.37;;;11.90;99.90;;;;;;5007621;28;20573;-56
2022/01/04 05:57:15;;;;;;;1.90;1.00;;;12.00;99.90;;;;;;5010057;28;20188;-56
2022/01/04 05:59:41;;;;;;;2.97;1.15;;;12.10;99.90;;;;;;5006877;28;20713;-56
2022/01/04 06:02:07;;;;;;;1.20;1.10;;;12.00;99.90;;;;;;5004343;28;20181;-57
2022/01/04 06:04:32;;;;;;;2.33;1.30;;;12.00;99.90;;;;;;5011350;28;20568;-55
2022/01/04 06:06:58;;;;;;;2.20;1.50;;;11.80;99.90;;;;;;5006548;28;20222;-56
2022/01/04 06:09:28;;;;;;;1.45;1.35;;;11.90;99.90;;;;;;5006923;28;20210;-54
2022/01/04 06:17:09;;;;;;;1.33;1.00;;;12.10;99.90;;;;;;5006192;28;20184;-54
2022/01/04 06:19:36;;;;;;;2.03;1.50;;;11.90;99.90;;;;;;5008683;28;20209;-57
2022/01/04 06:22:02;;;;;;;1.55;1.42;;;11.80;99.90;;;;;;5009370;28;20173;-57
2022/01/04 06:24:28;;;;;;;1.20;1.00;;;12.00;99.90;;;;;;5002012;28;20718;-58
2022/01/04 06:26:54;;;;;;;1.47;1.37;;;11.60;99.90;;;;;;5009102;28;20493;-55
2022/01/04 06:29:22;;;;;;;1.20;1.10;;;12.00;99.90;;;;;;5006156;28;20649;-55
2022/01/04 06:31:48;;;;;;;1.15;1.00;;;12.10;99.90;;;;;;5008799;28;20436;-55
2022/01/04 06:34:14;;;;;;;3.28;1.38;;;12.20;99.90;;;;;;5009592;28;20231;-55
2022/01/04 06:36:39;;;;;;;1.67;1.47;;;12.10;99.90;;;;;;5004540;28;20189;-55
2022/01/04 06:39:05;;;;;;;2.10;1.10;;;12.10;99.90;;;;;;5008208;28;20598;-55
2022/01/04 06:41:31;;;;;;;1.30;1.20;;;12.30;99.90;;;;;;5007819;28;20191;-54
2022/01/04 06:43:57;;;;;;;2.90;1.10;;;12.10;99.90;;;;;;5000742;28;20200;-55
2022/01/04 06:46:23;;;;;;;1.13;0.93;;;12.10;99.90;;;;;;5006291;28;20923;-54
2022/01/04 06:48:50;;;;;;;1.10;1.00;;;12.00;99.90;;;;;;5002983;28;20285;-55
2022/01/04 06:51:15;;;;;;;19.70;13.98;;;12.10;99.90;;;;;;5010050;28;20498;-54
2022/01/04 06:53:41;;;;;;;1.20;1.10;;;12.00;99.90;;;;;;5007707;28;20527;-57
2022/01/04 06:56:06;;;;;;;1.00;0.97;;;11.90;99.90;;;;;;5008215;28;20276;-56
2022/01/04 06:58:32;;;;;;;2.30;2.10;;;11.90;99.90;;;;;;5011176;28;20212;-58
2022/01/04 07:00:58;;;;;;;1.20;1.03;;;11.90;99.90;;;;;;5005311;28;20186;-56
2022/01/04 07:03:23;;;;;;;1.97;1.00;;;12.00;99.90;;;;;;5005346;28;20180;-54
2022/01/04 07:05:49;;;;;;;1.63;1.10;;;12.00;99.90;;;;;;5009098;28;20218;-54
2022/01/04 07:08:15;;;;;;;4.30;1.30;;;12.10;99.90;;;;;;5011507;28;20186;-55
2022/01/04 07:10:40;;;;;;;1.53;1.07;;;12.20;99.90;;;;;;4996996;28;20188;-55
2022/01/04 07:13:06;;;;;;;1.30;1.20;;;11.90;99.90;;;;;;5004997;28;20764;-54
2022/01/04 07:15:32;;;;;;;1.67;1.57;;;12.20;99.90;;;;;;5001771;28;20406;-54
2022/01/04 07:17:57;;;;;;;1.17;1.08;;;12.00;99.90;;;;;;5009396;28;20214;-54
2022/01/04 07:20:24;;;;;;;1.57;1.20;;;12.10;99.90;;;;;;5010286;28;20249;-54
2022/01/04 07:22:50;;;;;;;1.75;1.20;;;11.90;99.90;;;;;;5009370;28;20226;-54
2022/01/04 07:25:15;;;;;;;2.25;1.23;;;12.20;99.90;;;;;;5009496;28;20745;-54
2022/01/04 07:27:41;;;;;;;3.03;1.40;;;11.90;99.90;;;;;;5009371;28;20190;-55
2022/01/04 07:30:08;;;;;;;1.13;1.00;;;11.90;99.90;;;;;;4998568;28;20694;-54
2022/01/04 07:32:33;;;;;;;2.10;1.38;;;11.80;99.90;;;;;;5010350;28;20556;-54
2022/01/04 07:34:59;;;;;;;1.77;0.90;;;12.10;99.90;;;;;;5009909;28;20182;-55
2022/01/04 07:37:24;;;;;;;1.20;1.10;;;12.30;99.90;;;;;;5002697;28;20276;-55
2022/01/04 07:39:51;;;;;;;1.40;1.30;;;12.20;99.90;;;;;;5000797;28;20240;-57
2022/01/04 07:42:17;;;;;;;3.78;1.20;;;12.10;99.90;;;;;;5006430;28;20191;-57
2022/01/04 07:44:43;;;;;;;1.73;0.80;;;12.40;99.90;;;;;;5006741;28;20191;-57
2022/01/04 07:47:08;;;;;;;1.10;1.00;;;12.20;99.90;;;;;;5001495;28;20453;-58
2022/01/04 07:49:34;;;;;;;1.70;1.60;;;12.30;99.90;;;;;;5002702;28;20659;-58
2022/01/04 07:52:00;;;;;;;1.20;1.10;;;12.00;99.90;;;;;;5017821;28;20194;-58
2022/01/04 07:54:25;;;;;;;1.47;1.07;;;12.60;99.90;;;;;;5005078;28;20954;-57
2022/01/04 07:56:53;;;;;;;2.30;1.00;;;12.40;99.90;;;;;;5004976;28;20218;-56
2022/01/04 07:59:19;;;;;;;1.30;1.20;;;12.40;99.90;;;;;;5001326;28;20733;-56
2022/01/04 08:01:45;;;;;;;0.98;0.88;;;12.60;99.90;;;;;;5002783;28;20194;-58
2022/01/04 08:04:11;;;;;;;1.17;1.00;;;12.50;99.90;;;;;;4996293;28;20190;-55
2022/01/04 08:06:36;;;;;;;1.30;1.10;;;12.60;99.90;;;;;;5000880;28;20214;-56
2022/01/04 08:09:03;;;;;;;1.93;1.20;;;12.50;99.90;;;;;;4999112;28;20820;-57
2022/01/04 08:11:29;;;;;;;1.92;1.25;;;12.90;99.90;;;;;;5006289;28;20201;-58
2022/01/04 08:13:54;;;;;;;1.63;1.10;;;13.10;99.90;;;;;;5007793;28;20210;-58
2022/01/04 08:16:20;;;;;;;2.20;1.10;;;13.10;99.90;;;;;;5005404;28;20186;-56
2022/01/04 08:18:46;;;;;;;1.20;1.10;;;13.20;99.90;;;;;;5017488;28;20213;-56
2022/01/04 08:21:11;;;;;;;1.70;1.30;;;12.90;99.90;;;;;;5015543;28;20202;-57
2022/01/04 08:23:37;;;;;;;1.40;1.30;;;13.30;99.90;;;;;;5003464;28;20194;-57
2022/01/04 08:26:03;;;;;;;1.33;1.23;;;13.30;99.90;;;;;;5005063;28;20249;-56
2022/01/04 08:28:29;;;;;;;1.33;1.05;;;13.30;99.90;;;;;;5001941;28;20274;-58
2022/01/04 08:30:55;;;;;;;1.90;1.10;;;13.10;99.90;;;;;;5007229;28;20648;-58
2022/01/04 08:33:20;;;;;;;1.20;1.10;;;13.10;99.90;;;;;;5015555;28;20192;-57
2022/01/04 08:35:46;;;;;;;1.53;1.40;;;13.40;99.90;;;;;;5002710;28;20449;-58
2022/01/04 08:38:12;;;;;;;1.30;0.90;;;13.30;99.90;;;;;;5007259;28;20657;-57
2022/01/04 08:40:38;;;;;;;1.77;0.93;;;13.40;99.90;;;;;;5012484;28;20218;-57
2022/01/04 08:43:05;;;;;;;1.40;0.80;;;13.30;99.90;;;;;;5012330;28;20458;-57
2022/01/04 08:45:30;;;;;;;1.35;1.05;;;13.40;99.90;;;;;;5009295;28;20469;-57
2022/01/04 08:47:56;;;;;;;2.10;1.20;;;13.00;99.90;;;;;;5011289;28;20202;-57
2022/01/04 08:50:22;;;;;;;1.33;1.23;;;13.20;99.90;;;;;;5019096;28;20280;-57
2022/01/04 08:52:51;;;;;;;1.90;1.53;;;13.60;99.90;;;;;;5011014;28;20499;-58
2022/01/04 08:55:17;;;;;;;1.10;0.90;;;13.70;99.90;;;;;;5007242;28;20484;-57
2022/01/04 08:57:43;;;;;;;4.13;1.58;;;13.60;99.90;;;;;;5010364;28;20199;-58
2022/01/04 09:00:11;;;;;;;1.40;1.30;;;13.80;99.90;;;;;;5009876;28;20206;-58
2022/01/04 09:02:36;;;;;;;1.20;1.10;;;13.70;99.90;;;;;;5001197;28;20187;-57
2022/01/04 09:05:03;;;;;;;3.57;2.60;;;13.60;99.90;;;;;;5012195;28;20297;-57
2022/01/04 09:07:29;;;;;;;2.85;1.20;;;13.50;99.90;;;;;;5009501;28;20738;-54
2022/01/04 09:09:55;;;;;;;1.63;1.20;;;13.70;99.90;;;;;;5004540;28;20203;-56
2022/01/04 09:12:25;;;;;;;4.93;1.33;;;13.70;99.90;;;;;;5011131;28;20777;-54
2022/01/04 09:20:03;;;;;;;1.10;1.00;;;13.90;99.90;;;;;;5007754;28;20217;-54
2022/01/04 09:22:29;;;;;;;1.58;1.10;;;14.10;99.90;;;;;;5011687;28;20195;-55
2022/01/04 09:24:55;;;;;;;1.20;0.90;;;14.20;99.90;;;;;;5010200;28;20860;-55
2022/01/04 09:27:20;;;;;;;1.20;1.10;;;14.00;99.90;;;;;;5010410;28;20201;-55
2022/01/04 09:29:46;;;;;;;2.33;1.20;;;13.80;99.90;;;;;;5007884;28;20212;-54
2022/01/04 09:32:16;;;;;;;3.23;1.90;;;13.90;99.90;;;;;;5011427;28;20188;-55
2022/01/04 09:34:42;;;;;;;1.40;1.17;;;14.00;99.90;;;;;;5008950;28;20736;-55
2022/01/04 09:37:08;;;;;;;1.65;1.13;;;13.80;99.90;;;;;;5008603;28;20914;-55
2022/01/04 09:39:34;;;;;;;2.23;1.40;;;13.90;99.90;;;;;;5002795;28;20210;-55
2022/01/04 09:42:00;;;;;;;4.83;1.90;;;14.00;99.90;;;;;;5011560;28;21023;-54
2022/01/04 09:44:27;;;;;;;3.38;2.35;;;13.80;99.90;;;;;;5003437;28;20721;-57
2022/01/04 09:46:54;;;;;;;2.20;1.50;;;13.70;99.90;;;;;;5009312;28;20301;-55
2022/01/04 09:49:20;;;;;;;11.13;4.65;;;13.70;99.90;;;;;;5001871;28;20623;-55
2022/01/04 09:51:48;;;;;;;2.90;1.00;;;13.50;99.90;;;;;;5005503;28;20207;-56
2022/01/04 09:54:20;;;;;;;1.20;1.10;;;13.50;99.90;;;;;;5009013;28;20233;-55
2022/01/04 09:56:47;;;;;;;1.50;1.23;;;13.50;99.90;;;;;;5000137;28;20186;-53
2022/01/04 09:59:13;;;;;;;1.63;1.20;;;13.50;99.90;;;;;;5005190;28;20207;-56
2022/01/04 10:01:39;;;;;;;1.80;1.17;;;13.70;99.90;;;;;;5008289;28;20237;-55
2022/01/04 10:04:05;;;;;;;1.58;1.40;;;13.60;99.90;;;;;;5010679;28;20201;-55
2022/01/04 10:06:32;;;;;;;1.90;1.13;;;13.90;99.90;;;;;;5009668;28;20203;-57
2022/01/04 10:09:08;;;;;;;2.65;1.70;;;13.70;99.90;;;;;;5004170;28;20296;-56
2022/01/04 10:11:42;;;;;;;1.27;1.13;;;13.60;99.90;;;;;;5008926;28;20186;-58
2022/01/04 10:14:28;;;;;;;1.50;1.25;;;13.60;99.90;;;;;;5003089;28;20649;-57
2022/01/04 10:16:55;;;;;;;2.15;1.30;;;13.70;99.90;;;;;;5008980;28;20191;-58
2022/01/04 10:19:28;;;;;;;2.30;1.40;;;13.80;99.90;;;;;;5005618;28;20234;-57
2022/01/04 10:22:15;;;;;;;1.42;1.30;;;13.80;99.90;;;;;;4998273;28;20312;-57
2022/01/04 10:24:43;;;;;;;1.80;1.50;;;13.80;99.90;;;;;;5005134;28;20192;-57
2022/01/04 10:27:27;;;;;;;2.58;1.90;;;13.70;99.90;;;;;;5007769;28;20265;-56
2022/01/04 10:30:17;;;;;;;1.45;1.30;;;13.80;99.90;;;;;;4995359;28;20203;-56
2022/01/04 10:32:50;;;;;;;2.72;1.40;;;13.90;99.90;;;;;;5003515;28;20187;-56
2022/01/04 10:35:23;;;;;;;1.58;1.48;;;13.80;99.90;;;;;;5000585;28;20209;-56
2022/01/04 10:37:49;;;;;;;1.90;1.35;;;13.80;99.90;;;;;;5010934;28;20202;-56
2022/01/04 10:40:15;;;;;;;2.00;1.80;;;14.10;99.90;;;;;;5008037;28;20561;-57
2022/01/04 10:42:41;;;;;;;1.48;1.38;;;14.20;99.90;;;;;;5002023;28;20484;-56
2022/01/04 10:45:30;;;;;;;1.43;1.30;;;14.10;99.90;;;;;;5004377;28;20635;-56
2022/01/04 10:48:28;;;;;;;1.45;1.27;;;14.10;99.90;;;;;;5002623;28;20447;-58
2022/01/04 10:51:10;;;;;;;2.60;1.38;;;14.20;99.90;;;;;;5009992;28;20195;-55
2022/01/04 10:53:46;;;;;;;3.60;1.38;;;14.20;99.90;;;;;;5005819;28;20191;-55
2022/01/04 10:56:37;;;;;;;3.10;2.40;;;14.10;99.90;;;;;;5003586;28;20265;-55
2022/01/04 10:59:09;;;;;;;2.10;1.20;;;14.30;99.90;;;;;;5002195;28;20621;-55
2022/01/04 11:01:43;;;;;;;2.28;1.33;;;14.30;99.90;;;;;;5004474;28;20196;-54
2022/01/04 11:04:20;;;;;;;3.35;1.60;;;14.20;99.90;;;;;;5003066;28;20190;-56
2022/01/04 11:06:47;;;;;;;1.42;1.30;;;14.40;99.90;;;;;;5010650;28;20237;-57
2022/01/04 11:09:14;;;;;;;2.30;1.95;;;13.70;99.90;;;;;;5002047;28;20294;-57
2022/01/04 11:11:41;;;;;;;1.33;1.23;;;14.40;99.90;;;;;;5008375;28;20252;-57
2022/01/04 11:14:09;;;;;;;1.40;1.30;;;14.50;99.90;;;;;;5007364;28;20589;-56
2022/01/04 11:16:35;;;;;;;1.60;1.50;;;14.40;99.90;;;;;;5007013;28;20187;-57
2022/01/04 11:19:03;;;;;;;1.87;1.50;;;14.30;99.90;;;;;;5004321;28;20285;-56
2022/01/04 11:21:32;;;;;;;2.33;1.65;;;14.30;99.90;;;;;;5009916;28;20804;-56
2022/01/04 11:23:59;;;;;;;2.05;1.70;;;14.60;99.90;;;;;;5008717;28;20277;-55
2022/01/04 11:26:25;;;;;;;1.85;1.35;;;14.00;99.90;;;;;;5005668;28;20207;-55
2022/01/04 11:28:52;;;;;;;2.33;1.40;;;14.40;99.90;;;;;;5007459;28;20206;-54
2022/01/04 11:31:46;;;;;;;1.65;1.55;;;14.60;99.90;;;;;;5009456;28;20273;-57
2022/01/04 11:34:17;;;;;;;3.63;1.33;;;14.40;99.90;;;;;;5009876;28;20175;-56
2022/01/04 11:36:49;;;;;;;2.55;1.27;;;14.50;99.90;;;;;;5007701;28;20192;-56
2022/01/04 11:39:28;;;;;;;2.33;1.50;;;14.50;99.90;;;;;;5004796;28;20653;-58
2022/01/04 11:41:55;;;;;;;2.20;1.58;;;14.20;99.90;;;;;;4998262;28;20190;-58
2022/01/04 11:44:26;;;;;;;2.47;2.08;;;13.90;99.90;;;;;;4999792;28;20182;-58
2022/01/04 11:46:59;;;;;;;2.17;1.70;;;14.10;99.90;;;;;;5005312;28;20203;-57
2022/01/04 11:49:25;;;;;;;2.30;1.60;;;14.40;99.90;;;;;;5009381;28;20203;-57
2022/01/04 11:51:51;;;;;;;2.77;1.90;;;14.10;99.90;;;;;;5004409;28;20434;-57
2022/01/04 11:54:29;;;;;;;2.00;1.90;;;14.30;99.90;;;;;;5009871;28;21348;-59
2022/01/04 11:57:06;;;;;;;2.35;1.60;;;14.00;99.90;;;;;;5011970;28;20187;-58
2022/01/04 11:59:36;;;;;;;1.73;1.63;;;14.00;99.90;;;;;;5007550;28;20576;-57
2022/01/04 12:02:24;;;;;;;1.73;1.63;;;13.90;99.90;;;;;;5012569;28;20190;-57
2022/01/04 12:05:21;;;;;;;2.40;2.20;;;13.70;99.90;;;;;;5011648;28;20187;-58
2022/01/04 12:07:49;;;;;;;1.75;1.60;;;14.10;99.90;;;;;;5005739;28;20606;-57
2022/01/04 12:10:20;;;;;;;2.22;1.83;;;13.80;99.90;;;;;;5005103;28;20261;-58
2022/01/04 12:13:00;;;;;;;2.50;1.70;;;13.90;99.90;;;;;;5007314;28;20190;-57
2022/01/04 12:15:35;;;;;;;2.00;1.80;;;13.70;99.90;;;;;;5010128;28;20193;-56
2022/01/04 12:18:06;;;;;;;2.40;1.67;;;14.10;99.90;;;;;;5012217;28;20213;-55
2022/01/04 12:20:44;;;;;;;2.47;1.65;;;13.70;99.90;;;;;;5002474;28;20707;-55
2022/01/04 12:23:33;;;;;;;3.80;2.15;;;13.70;99.90;;;;;;5012200;28;20190;-55
2022/01/04 12:26:04;;;;;;;1.90;1.80;;;13.70;99.90;;;;;;5010339;28;20206;-56
2022/01/04 12:28:37;;;;;;;3.90;2.17;;;13.80;99.90;;;;;;5008630;28;20207;-56
2022/01/04 12:31:18;;;;;;;1.92;1.73;;;13.70;99.90;;;;;;5013511;28;20237;-56
2022/01/04 12:34:10;;;;;;;1.85;1.40;;;13.50;99.90;;;;;;5006436;28;20188;-55
2022/01/04 12:36:38;;;;;;;3.28;1.80;;;13.70;99.90;;;;;;5003658;28;20195;-55
2022/01/04 12:39:09;;;;;;;4.65;2.42;;;13.70;99.90;;;;;;4998694;28;20207;-55
2022/01/04 12:41:37;;;;;;;2.63;1.92;;;13.60;99.90;;;;;;5010637;28;20240;-58
2022/01/04 12:44:04;;;;;;;2.88;1.80;;;13.70;99.90;;;;;;4999334;28;20214;-56
2022/01/04 12:46:33;;;;;;;2.10;1.90;;;13.50;99.90;;;;;;5003144;28;20206;-55
2022/01/04 12:49:04;;;;;;;1.77;1.50;;;13.70;99.90;;;;;;5013738;28;20226;-58
2022/01/04 12:51:44;;;;;;;2.03;1.75;;;13.80;99.90;;;;;;5004641;28;20282;-57
2022/01/04 12:54:12;;;;;;;1.92;1.83;;;14.00;99.90;;;;;;5002520;28;20644;-59
2022/01/04 12:57:04;;;;;;;2.78;2.05;;;13.80;99.90;;;;;;5007648;28;20250;-57
2022/01/04 12:59:47;;;;;;;2.00;1.60;;;13.50;99.90;;;;;;4995270;28;20227;-58
2022/01/04 13:02:18;;;;;;;2.05;1.83;;;13.60;99.90;;;;;;5003936;28;20202;-57